createdAt,value
2023-03-23T16:00:11.779Z,9.23
2023-03-23T16:02:39.030Z,9.20
2023-03-23T16:05:06.952Z,9.22
2023-03-23T16:07:34.402Z,9.25
2023-03-23T16:10:03.888Z,9.21
2023-03-23T16:12:31.302Z,9.22
2023-03-23T16:14:58.702Z,9.19
2023-03-23T16:17:26.767Z,9.12
2023-03-23T16:19:54.015Z,9.15
2023-03-23T16:22:21.687Z,9.12
2023-03-23T16:24:48.954Z,9.11
2023-03-23T16:27:16.396Z,9.08
2023-03-23T16:30:02.178Z,8.99
2023-03-23T16:32:31.143Z,8.94
2023-03-23T16:34:58.342Z,8.86
2023-03-23T16:37:25.627Z,8.81
2023-03-23T16:39:52.988Z,8.75
2023-03-23T16:42:20.384Z,8.82
2023-03-23T16:44:49.125Z,8.85
2023-03-23T16:47:17.335Z,8.72
2023-03-23T16:49:44.795Z,8.62
2023-03-23T16:52:12.262Z,8.64
2023-03-23T16:54:39.641Z,8.60
2023-03-23T16:57:07.291Z,8.61
2023-03-23T16:59:34.664Z,8.62
2023-03-23T17:02:04.077Z,8.66
2023-03-23T17:04:32.769Z,8.56
2023-03-23T17:07:00.641Z,8.56
2023-03-23T17:09:28.112Z,8.57
2023-03-23T17:11:55.996Z,8.61
2023-03-23T17:14:23.303Z,8.63
2023-03-23T17:16:50.592Z,8.65
2023-03-23T17:19:17.914Z,8.60
2023-03-23T17:21:45.358Z,8.62
2023-03-23T17:24:12.738Z,8.60
2023-03-23T17:26:40.077Z,8.52
2023-03-23T17:29:07.430Z,8.55
2023-03-23T17:31:35.105Z,8.52
2023-03-23T17:34:02.625Z,8.61
2023-03-23T17:36:30.009Z,8.54
2023-03-23T17:38:59.333Z,8.50
2023-03-23T17:41:29.599Z,8.52
2023-03-23T17:44:07.585Z,8.51
2023-03-23T17:46:37.916Z,8.39
2023-03-23T17:49:05.273Z,8.48
2023-03-23T17:51:32.574Z,8.49
2023-03-23T17:53:59.884Z,8.43
2023-03-23T17:56:27.340Z,8.40
2023-03-23T17:58:54.674Z,8.43
2023-03-23T18:01:22.206Z,8.47
2023-03-23T18:03:51.609Z,8.41
2023-03-23T18:06:19.672Z,8.39
2023-03-23T18:08:47.187Z,8.35
2023-03-23T18:11:14.491Z,8.40
2023-03-23T18:13:42.093Z,8.40
2023-03-23T18:16:09.651Z,8.34
2023-03-23T18:18:37.630Z,8.38
2023-03-23T18:21:08.232Z,8.32
2023-03-23T18:23:43.098Z,8.28
2023-03-23T18:26:16.937Z,8.19
2023-03-23T18:28:44.226Z,8.21
2023-03-23T18:31:13.634Z,8.21
2023-03-23T18:33:46.932Z,8.29
2023-03-23T18:36:15.620Z,8.33
2023-03-23T18:38:44.244Z,8.27
2023-03-23T18:41:12.226Z,8.26
2023-03-23T18:43:39.611Z,8.19
2023-03-23T18:46:07.716Z,8.19
2023-03-23T18:48:35.868Z,8.20
2023-03-23T18:51:03.359Z,8.14
2023-03-23T18:53:30.960Z,8.17
2023-03-23T18:56:08.880Z,8.13
2023-03-23T18:58:36.324Z,8.16
2023-03-23T19:01:08.340Z,8.18
2023-03-23T19:03:36.498Z,8.15
2023-03-23T19:06:04.806Z,8.15
2023-03-23T19:08:32.541Z,8.11
2023-03-23T19:11:01.857Z,8.16
2023-03-23T19:13:30.236Z,8.10
2023-03-23T19:15:57.614Z,8.16
2023-03-23T19:18:25.105Z,8.14
2023-03-23T19:21:13.377Z,8.13
2023-03-23T19:23:42.099Z,8.10
2023-03-23T19:26:10.314Z,8.07
2023-03-23T19:31:07.801Z,8.15
2023-03-23T19:33:35.124Z,8.11
2023-03-23T19:36:10.972Z,8.06
2023-03-23T19:38:40.767Z,8.02
2023-03-23T19:41:08.304Z,8.05
2023-03-23T19:43:37.582Z,8.02
2023-03-23T19:46:05.247Z,8.02
2023-03-23T19:48:33.764Z,8.06
2023-03-23T19:51:01.738Z,8.04
2023-03-23T19:53:29.064Z,8.10
2023-03-23T19:55:56.381Z,8.00
2023-03-23T19:58:23.744Z,8.09
2023-03-23T20:00:51.000Z,8.00
2023-03-23T20:03:18.296Z,8.02
2023-03-23T20:05:45.931Z,8.13
2023-03-23T20:08:14.827Z,8.06
2023-03-23T20:10:42.331Z,8.01
2023-03-23T20:13:11.527Z,8.02
2023-03-23T20:15:38.916Z,8.04
2023-03-23T20:18:07.539Z,8.03
2023-03-23T20:20:36.790Z,8.00
2023-03-23T20:23:04.854Z,7.95
2023-03-23T20:25:32.347Z,7.89
2023-03-23T20:28:02.224Z,7.87
2023-03-23T20:30:29.504Z,7.85
2023-03-23T20:33:00.950Z,7.84
2023-03-23T20:35:29.749Z,7.86
2023-03-23T20:37:57.818Z,7.89
2023-03-23T20:40:25.166Z,7.93
2023-03-23T20:42:54.833Z,7.90
2023-03-23T20:45:22.790Z,7.89
2023-03-23T20:47:50.123Z,7.90
2023-03-23T20:50:17.772Z,7.91
2023-03-23T20:52:45.180Z,7.81
2023-03-23T20:55:12.435Z,7.81
2023-03-23T20:57:40.580Z,7.82
2023-03-23T21:00:09.760Z,7.86
2023-03-23T21:02:37.068Z,7.93
2023-03-23T21:05:05.438Z,7.86
2023-03-23T21:07:32.733Z,7.82
2023-03-23T21:10:00.077Z,7.74
2023-03-23T21:12:27.772Z,7.77
2023-03-23T21:14:55.146Z,7.75
2023-03-23T21:17:22.501Z,7.79
2023-03-23T21:19:50.250Z,7.74
2023-03-23T21:22:19.176Z,7.78
2023-03-23T21:24:50.818Z,7.76
2023-03-23T21:27:18.172Z,7.65
2023-03-23T21:29:45.641Z,7.58
2023-03-23T21:32:12.906Z,7.56
2023-03-23T21:34:40.236Z,7.60
2023-03-23T21:37:07.512Z,7.53
2023-03-23T21:39:34.959Z,7.40
2023-03-23T21:42:04.607Z,7.41
2023-03-23T21:44:35.313Z,7.25
2023-03-23T21:47:02.853Z,7.36
2023-03-23T21:49:31.738Z,7.22
2023-03-23T21:51:59.136Z,7.32
2023-03-23T21:54:30.454Z,7.39
2023-03-23T21:56:58.962Z,7.35
2023-03-23T21:59:27.442Z,7.37
2023-03-23T22:01:55.168Z,7.38
2023-03-23T22:04:22.732Z,7.31
2023-03-23T22:06:50.020Z,7.27
2023-03-23T22:09:17.709Z,7.28
2023-03-23T22:11:45.131Z,7.35
2023-03-23T22:14:12.773Z,7.15
2023-03-23T22:16:40.151Z,7.01
2023-03-23T22:19:07.454Z,6.93
2023-03-23T22:21:34.729Z,7.12
2023-03-23T22:24:02.304Z,7.13
2023-03-23T22:26:29.986Z,7.11
2023-03-23T22:28:57.992Z,7.10
2023-03-23T22:31:27.843Z,7.04
2023-03-23T22:33:56.260Z,6.96
2023-03-23T22:36:24.656Z,6.98
2023-03-23T22:38:52.248Z,6.89
2023-03-23T22:41:21.184Z,6.90
2023-03-23T22:43:48.746Z,6.97
2023-03-23T22:46:16.176Z,7.02
2023-03-23T22:48:43.627Z,7.04
2023-03-23T22:51:11.922Z,7.15
2023-03-23T22:53:39.328Z,7.27
2023-03-23T22:56:06.849Z,7.21
2023-03-23T22:58:34.254Z,7.18
2023-03-23T23:01:02.802Z,7.31
2023-03-23T23:03:30.728Z,7.36
2023-03-23T23:05:59.014Z,7.40
2023-03-23T23:08:26.725Z,7.38
2023-03-23T23:10:56.064Z,7.40
2023-03-23T23:13:24.083Z,7.47
2023-03-23T23:15:53.011Z,7.58
2023-03-23T23:18:20.945Z,7.56
2023-03-23T23:20:49.360Z,7.60
2023-03-23T23:23:16.665Z,7.61
2023-03-23T23:25:44.326Z,7.67
2023-03-23T23:28:12.047Z,7.63
2023-03-23T23:30:39.697Z,7.67
2023-03-23T23:33:07.658Z,7.60
2023-03-23T23:35:37.226Z,7.77
2023-03-23T23:38:05.036Z,7.85
2023-03-23T23:40:35.685Z,7.82
2023-03-23T23:43:03.783Z,7.70
2023-03-23T23:45:31.977Z,7.64
2023-03-23T23:47:59.682Z,7.72
2023-03-23T23:50:27.218Z,7.76
2023-03-23T23:52:54.483Z,7.75
2023-03-23T23:55:21.939Z,7.70
2023-03-23T23:57:49.906Z,7.71
